x

Ps-1126 Tabs J (42044) Weather Station

6:00pm - Mon 30th May 2016 All times are CDT. -5 hours from GMT.

  • Wind
    13mph, 18mph gusts
  • Sea Temp 81°f
  • Air Temp 80°f
  • Sea Pressure 1011mb
  • Ps-1126 Tabs J
  • Ps-1126 Tabs J

More Historic Weather Station data

Upgrade to MSW Pro to gain access to the past 30 days of data for over 8000 Wavebouys and Weather Stations around the globe.

Join Pro

Comparision Forecast

View Surf forecast
   
Mon 05/30 6:00pm 13 18 mph 1011mb 81f 80f
5:00pm 13 16 mph 1012.1mb 81f 80f
3:00pm 13 18 mph 1014mb 80f 80f
2:00pm 9 16 mph 1015.1mb 80f 80f
1:00pm 18 27 mph 1015.9mb 80f 80f
12:00pm 4 11 mph 1015.9mb 80f 80f
11:00am 9 11 mph 1016mb 80f 80f
10:00am 9
mph
1015.9mb 80f 80f
9:00am 9 11 mph 1015.9mb 80f 80f
8:00am 9
mph
1015.5mb 80f 80f
7:00am 9 13 mph 1014.6mb 80f 79f
5:00am 11 13 mph 1013.1mb 80f 79f
4:00am 13 16 mph 1012.7mb 80f 79f
1:00am 11 13 mph 1015mb 80f 80f
12:00am 11 16 mph 1015.6mb 80f 80f
Sun 05/29 3:00pm 22 29 mph 1016.2mb 80f 81f
2:00pm 25 27 mph 1016.6mb 80f 80f
1:00pm 22 29 mph 1017.1mb 80f 80f
12:00pm 25 29 mph 1017.2mb 80f 80f
10:00am 9 11 mph 1017.6mb 79f 80f
8:00am 9 16 mph 1015.6mb 79f 80f
6:00am 13 16 mph 1014mb 79f 79f
5:00am 13 16 mph 1013.2mb 78f 79f
4:00am 11 16 mph 1012.9mb 78f 79f
2:00am 13 16 mph 1013.7mb 79f 79f
1:00am 11 16 mph 1014.6mb 79f 80f
12:00am 13 16 mph 1014.9mb 79f 80f
Sat 05/28 11:00pm 11 16 mph 1015.1mb 79f 80f
5:00pm 11 13 mph 1012.2mb 81f 81f
4:00pm 13
mph
1012.6mb 80f 81f
3:00pm 16 20 mph 1012.6mb 81f 81f
12:00pm 20 25 mph 1012.8mb 80f 81f
11:00am 20 27 mph 1012.6mb 80f 81f
10:00am 20 25 mph 1012.5mb 80f 80f
9:00am 20 27 mph 1011.6mb 80f 81f
8:00am 29 36 mph 1010.7mb 80f 80f
7:00am 25 31 mph 1009.6mb 80f 80f
6:00am 25 29 mph 1009.6mb 80f 80f
4:00am 16 18 mph 1009.5mb 79f 80f
3:00am 13 16 mph 1008.6mb 79f 80f
1:00am 16 18 mph 1008.4mb 79f 80f
12:00am 13 16 mph 1008.2mb 79f 80f
Fri 05/27 6:00pm 16 20 mph 1004.4mb 80f 81f
5:00pm 18 22 mph 1005.2mb 80f 81f
3:00pm 20 22 mph 1006mb 80f 81f
11:00am 22 27 mph 1007.1mb 81f 81f
8:00am 18 22 mph 1007.1mb 81f 81f
7:00am 18 20 mph 1006.6mb 80f 81f
6:00am 25 29 mph 1005.2mb 80f 80f